sensor_id;sensor_type;location;lat;lon;timestamp;temperature;humidity
23731;DHT22;12046;44.702;10.622;2023-02-08T00:00:25;2.70;69.90
23731;DHT22;12046;44.702;10.622;2023-02-08T00:02:51;2.60;69.90
23731;DHT22;12046;44.702;10.622;2023-02-08T00:05:17;2.60;70.00
23731;DHT22;12046;44.702;10.622;2023-02-08T00:07:43;2.50;70.20
23731;DHT22;12046;44.702;10.622;2023-02-08T00:10:09;2.40;70.40
23731;DHT22;12046;44.702;10.622;2023-02-08T00:12:36;2.30;70.70
23731;DHT22;12046;44.702;10.622;2023-02-08T00:15:03;2.30;70.90
23731;DHT22;12046;44.702;10.622;2023-02-08T00:17:29;2.20;71.10
23731;DHT22;12046;44.702;10.622;2023-02-08T00:19:55;2.10;71.20
23731;DHT22;12046;44.702;10.622;2023-02-08T00:22:21;2.00;71.40
23731;DHT22;12046;44.702;10.622;2023-02-08T00:24:46;2.00;71.60
23731;DHT22;12046;44.702;10.622;2023-02-08T00:27:14;1.90;72.00
23731;DHT22;12046;44.702;10.622;2023-02-08T00:29:40;1.90;72.30
23731;DHT22;12046;44.702;10.622;2023-02-08T00:32:06;1.80;72.60
23731;DHT22;12046;44.702;10.622;2023-02-08T00:34:31;1.80;72.90
23731;DHT22;12046;44.702;10.622;2023-02-08T00:37:00;1.70;73.00
23731;DHT22;12046;44.702;10.622;2023-02-08T00:39:25;1.70;73.30
23731;DHT22;12046;44.702;10.622;2023-02-08T00:41:51;1.60;73.50
23731;DHT22;12046;44.702;10.622;2023-02-08T00:44:17;1.60;73.70
23731;DHT22;12046;44.702;10.622;2023-02-08T00:46:43;1.60;73.90
23731;DHT22;12046;44.702;10.622;2023-02-08T00:49:09;1.60;74.00
23731;DHT22;12046;44.702;10.622;2023-02-08T00:51:35;1.50;74.10
23731;DHT22;12046;44.702;10.622;2023-02-08T00:54:00;1.50;74.40
23731;DHT22;12046;44.702;10.622;2023-02-08T00:56:26;1.50;74.50
23731;DHT22;12046;44.702;10.622;2023-02-08T00:58:52;1.40;74.50
23731;DHT22;12046;44.702;10.622;2023-02-08T01:01:17;1.30;74.70
23731;DHT22;12046;44.702;10.622;2023-02-08T01:03:43;1.30;75.00
23731;DHT22;12046;44.702;10.622;2023-02-08T01:06:13;1.30;75.30
23731;DHT22;12046;44.702;10.622;2023-02-08T01:08:39;1.30;75.50
23731;DHT22;12046;44.702;10.622;2023-02-08T01:11:08;1.20;75.60
23731;DHT22;12046;44.702;10.622;2023-02-08T01:13:36;1.20;75.80
23731;DHT22;12046;44.702;10.622;2023-02-08T01:18:35;1.20;76.00
23731;DHT22;12046;44.702;10.622;2023-02-08T01:21:09;1.20;76.10
23731;DHT22;12046;44.702;10.622;2023-02-08T01:23:36;1.10;76.30
23731;DHT22;12046;44.702;10.622;2023-02-08T01:26:03;1.10;76.50
23731;DHT22;12046;44.702;10.622;2023-02-08T01:28:29;1.10;76.80
23731;DHT22;12046;44.702;10.622;2023-02-08T01:30:55;1.10;76.90
23731;DHT22;12046;44.702;10.622;2023-02-08T01:33:21;1.20;77.00
23731;DHT22;12046;44.702;10.622;2023-02-08T01:35:51;1.20;77.10
23731;DHT22;12046;44.702;10.622;2023-02-08T01:38:18;1.10;77.10
23731;DHT22;12046;44.702;10.622;2023-02-08T01:40:44;1.10;77.30
23731;DHT22;12046;44.702;10.622;2023-02-08T01:43:30;1.10;77.60
23731;DHT22;12046;44.702;10.622;2023-02-08T01:45:56;1.20;77.60
23731;DHT22;12046;44.702;10.622;2023-02-08T01:48:43;1.20;77.50
23731;DHT22;12046;44.702;10.622;2023-02-08T01:51:40;1.20;77.50
23731;DHT22;12046;44.702;10.622;2023-02-08T01:54:09;1.20;77.50
23731;DHT22;12046;44.702;10.622;2023-02-08T01:56:38;1.20;77.30
23731;DHT22;12046;44.702;10.622;2023-02-08T01:59:10;1.30;77.40
23731;DHT22;12046;44.702;10.622;2023-02-08T02:01:37;1.20;77.40
23731;DHT22;12046;44.702;10.622;2023-02-08T02:04:04;1.20;77.40
23731;DHT22;12046;44.702;10.622;2023-02-08T02:06:34;1.20;77.50
23731;DHT22;12046;44.702;10.622;2023-02-08T02:11:55;1.10;78.10
23731;DHT22;12046;44.702;10.622;2023-02-08T02:14:21;1.10;78.50
23731;DHT22;12046;44.702;10.622;2023-02-08T02:16:48;1.00;78.80
23731;DHT22;12046;44.702;10.622;2023-02-08T02:31:10;0.70;80.70
23731;DHT22;12046;44.702;10.622;2023-02-08T02:41:55;0.60;81.70
23731;DHT22;12046;44.702;10.622;2023-02-08T02:44:51;0.50;82.00
23731;DHT22;12046;44.702;10.622;2023-02-08T02:50:04;0.40;82.90
23731;DHT22;12046;44.702;10.622;2023-02-08T02:52:55;0.50;83.30
23731;DHT22;12046;44.702;10.622;2023-02-08T02:55:24;0.50;83.50
23731;DHT22;12046;44.702;10.622;2023-02-08T02:57:53;0.60;83.70
23731;DHT22;12046;44.702;10.622;2023-02-08T03:00:24;0.60;83.60
23731;DHT22;12046;44.702;10.622;2023-02-08T03:02:51;0.60;83.60
23731;DHT22;12046;44.702;10.622;2023-02-08T03:05:17;0.60;83.60
23731;DHT22;12046;44.702;10.622;2023-02-08T03:10:27;0.50;83.90
23731;DHT22;12046;44.702;10.622;2023-02-08T03:13:39;0.50;84.20
23731;DHT22;12046;44.702;10.622;2023-02-08T03:19:06;0.50;85.10
23731;DHT22;12046;44.702;10.622;2023-02-08T03:22:00;0.60;85.40
23731;DHT22;12046;44.702;10.622;2023-02-08T03:24:37;0.60;85.30
23731;DHT22;12046;44.702;10.622;2023-02-08T03:27:19;0.60;85.10
23731;DHT22;12046;44.702;10.622;2023-02-08T03:30:00;0.60;84.90
23731;DHT22;12046;44.702;10.622;2023-02-08T03:32:39;0.60;84.80
23731;DHT22;12046;44.702;10.622;2023-02-08T03:35:22;0.60;84.90
23731;DHT22;12046;44.702;10.622;2023-02-08T03:37:54;0.60;84.90
23731;DHT22;12046;44.702;10.622;2023-02-08T03:40:24;0.50;84.90
23731;DHT22;12046;44.702;10.622;2023-02-08T03:42:53;0.40;85.10
23731;DHT22;12046;44.702;10.622;2023-02-08T03:45:31;0.40;85.50
23731;DHT22;12046;44.702;10.622;2023-02-08T03:47:59;0.40;86.10
23731;DHT22;12046;44.702;10.622;2023-02-08T03:50:30;0.30;86.30
23731;DHT22;12046;44.702;10.622;2023-02-08T03:52:57;0.40;86.70
23731;DHT22;12046;44.702;10.622;2023-02-08T03:55:29;0.40;87.00
23731;DHT22;12046;44.702;10.622;2023-02-08T03:58:11;0.40;87.20
23731;DHT22;12046;44.702;10.622;2023-02-08T04:00:44;0.40;87.40
23731;DHT22;12046;44.702;10.622;2023-02-08T04:03:19;0.40;87.20
23731;DHT22;12046;44.702;10.622;2023-02-08T04:05:47;0.40;87.10
23731;DHT22;12046;44.702;10.622;2023-02-08T04:08:13;0.50;87.30
23731;DHT22;12046;44.702;10.622;2023-02-08T04:10:38;0.40;87.20
23731;DHT22;12046;44.702;10.622;2023-02-08T04:13:04;0.50;87.20
23731;DHT22;12046;44.702;10.622;2023-02-08T04:15:30;0.40;87.20
23731;DHT22;12046;44.702;10.622;2023-02-08T04:17:56;0.40;87.20
23731;DHT22;12046;44.702;10.622;2023-02-08T04:20:21;0.40;87.10
23731;DHT22;12046;44.702;10.622;2023-02-08T04:22:47;0.40;87.20
23731;DHT22;12046;44.702;10.622;2023-02-08T04:25:13;0.40;87.10
23731;DHT22;12046;44.702;10.622;2023-02-08T04:27:39;0.30;87.00
23731;DHT22;12046;44.702;10.622;2023-02-08T04:30:06;0.30;87.10
23731;DHT22;12046;44.702;10.622;2023-02-08T04:32:32;0.20;87.10
23731;DHT22;12046;44.702;10.622;2023-02-08T04:34:58;0.20;87.20
23731;DHT22;12046;44.702;10.622;2023-02-08T04:37:24;0.10;87.30
23731;DHT22;12046;44.702;10.622;2023-02-08T04:39:50;0.10;87.40
23731;DHT22;12046;44.702;10.622;2023-02-08T04:42:16;0.10;87.60
23731;DHT22;12046;44.702;10.622;2023-02-08T04:44:41;0.00;87.70
23731;DHT22;12046;44.702;10.622;2023-02-08T04:47:07;0.00;87.80
23731;DHT22;12046;44.702;10.622;2023-02-08T04:49:33;0.00;88.10
23731;DHT22;12046;44.702;10.622;2023-02-08T04:51:58;-0.10;88.20
23731;DHT22;12046;44.702;10.622;2023-02-08T04:54:24;-0.10;88.30
23731;DHT22;12046;44.702;10.622;2023-02-08T04:56:50;-0.10;88.50
23731;DHT22;12046;44.702;10.622;2023-02-08T04:59:16;-0.10;88.70
23731;DHT22;12046;44.702;10.622;2023-02-08T05:01:43;-0.10;88.90
23731;DHT22;12046;44.702;10.622;2023-02-08T05:04:09;-0.10;89.00
23731;DHT22;12046;44.702;10.622;2023-02-08T05:06:35;-0.10;89.20
23731;DHT22;12046;44.702;10.622;2023-02-08T05:09:01;-0.10;89.20
23731;DHT22;12046;44.702;10.622;2023-02-08T05:11:26;-0.10;89.30
23731;DHT22;12046;44.702;10.622;2023-02-08T05:13:52;-0.10;89.30
23731;DHT22;12046;44.702;10.622;2023-02-08T05:16:18;-0.10;89.30
23731;DHT22;12046;44.702;10.622;2023-02-08T05:18:44;-0.10;89.30
23731;DHT22;12046;44.702;10.622;2023-02-08T05:21:10;-0.20;89.30
23731;DHT22;12046;44.702;10.622;2023-02-08T05:23:36;-0.20;89.40
23731;DHT22;12046;44.702;10.622;2023-02-08T05:26:09;-0.30;89.50
23731;DHT22;12046;44.702;10.622;2023-02-08T05:28:36;-0.30;89.80
23731;DHT22;12046;44.702;10.622;2023-02-08T05:31:19;-0.40;90.00
23731;DHT22;12046;44.702;10.622;2023-02-08T05:33:45;-0.30;90.10
23731;DHT22;12046;44.702;10.622;2023-02-08T05:36:11;-0.40;90.10
23731;DHT22;12046;44.702;10.622;2023-02-08T05:38:36;-0.50;90.10
23731;DHT22;12046;44.702;10.622;2023-02-08T05:41:02;-0.50;90.20
23731;DHT22;12046;44.702;10.622;2023-02-08T05:43:28;-0.50;90.30
23731;DHT22;12046;44.702;10.622;2023-02-08T05:45:54;-0.50;90.40
23731;DHT22;12046;44.702;10.622;2023-02-08T05:48:19;-0.60;90.40
23731;DHT22;12046;44.702;10.622;2023-02-08T05:50:45;-0.60;90.50
23731;DHT22;12046;44.702;10.622;2023-02-08T05:53:11;-0.60;90.70
23731;DHT22;12046;44.702;10.622;2023-02-08T05:55:37;-0.70;90.80
23731;DHT22;12046;44.702;10.622;2023-02-08T05:58:03;-0.70;90.90
23731;DHT22;12046;44.702;10.622;2023-02-08T06:00:28;-0.70;91.10
23731;DHT22;12046;44.702;10.622;2023-02-08T06:02:55;-0.70;91.10
23731;DHT22;12046;44.702;10.622;2023-02-08T06:05:21;-0.70;91.20
23731;DHT22;12046;44.702;10.622;2023-02-08T06:07:47;-0.70;91.30
23731;DHT22;12046;44.702;10.622;2023-02-08T06:10:13;-0.80;91.40
23731;DHT22;12046;44.702;10.622;2023-02-08T06:12:39;-0.80;91.50
23731;DHT22;12046;44.702;10.622;2023-02-08T06:15:05;-0.80;91.60
23731;DHT22;12046;44.702;10.622;2023-02-08T06:17:30;-0.80;91.60
23731;DHT22;12046;44.702;10.622;2023-02-08T06:19:56;-0.90;91.70
23731;DHT22;12046;44.702;10.622;2023-02-08T06:22:22;-0.90;91.80
23731;DHT22;12046;44.702;10.622;2023-02-08T06:24:48;-0.90;91.90
23731;DHT22;12046;44.702;10.622;2023-02-08T06:27:14;-0.90;92.10
23731;DHT22;12046;44.702;10.622;2023-02-08T06:29:39;-1.00;92.50
23731;DHT22;12046;44.702;10.622;2023-02-08T06:32:05;-1.00;92.40
23731;DHT22;12046;44.702;10.622;2023-02-08T06:34:31;-1.00;92.60
23731;DHT22;12046;44.702;10.622;2023-02-08T06:36:57;-1.00;92.80
23731;DHT22;12046;44.702;10.622;2023-02-08T06:39:27;-1.00;93.00
23731;DHT22;12046;44.702;10.622;2023-02-08T06:41:55;-1.00;93.20
23731;DHT22;12046;44.702;10.622;2023-02-08T06:44:21;-0.90;93.40
23731;DHT22;12046;44.702;10.622;2023-02-08T06:46:47;-0.90;93.50
23731;DHT22;12046;44.702;10.622;2023-02-08T06:49:13;-0.80;93.40
23731;DHT22;12046;44.702;10.622;2023-02-08T06:51:39;-0.80;93.40
23731;DHT22;12046;44.702;10.622;2023-02-08T06:54:05;-0.80;93.30
23731;DHT22;12046;44.702;10.622;2023-02-08T06:56:31;-0.70;93.20
23731;DHT22;12046;44.702;10.622;2023-02-08T06:58:57;-0.70;93.20
23731;DHT22;12046;44.702;10.622;2023-02-08T07:01:22;-0.70;93.10
23731;DHT22;12046;44.702;10.622;2023-02-08T07:03:49;-0.60;93.20
23731;DHT22;12046;44.702;10.622;2023-02-08T07:06:17;-0.60;93.10
23731;DHT22;12046;44.702;10.622;2023-02-08T07:08:43;-0.60;93.20
23731;DHT22;12046;44.702;10.622;2023-02-08T07:11:14;-0.50;93.30
23731;DHT22;12046;44.702;10.622;2023-02-08T07:13:40;-0.40;93.40
23731;DHT22;12046;44.702;10.622;2023-02-08T07:16:07;-0.30;93.50
23731;DHT22;12046;44.702;10.622;2023-02-08T07:18:34;-0.10;93.50
23731;DHT22;12046;44.702;10.622;2023-02-08T07:20:59;0.10;93.40
23731;DHT22;12046;44.702;10.622;2023-02-08T07:23:25;0.30;93.10
23731;DHT22;12046;44.702;10.622;2023-02-08T07:26:01;0.50;92.80
23731;DHT22;12046;44.702;10.622;2023-02-08T07:28:27;0.70;92.50
23731;DHT22;12046;44.702;10.622;2023-02-08T07:30:53;0.90;92.30
23731;DHT22;12046;44.702;10.622;2023-02-08T07:33:20;1.10;92.00
23731;DHT22;12046;44.702;10.622;2023-02-08T07:35:46;1.30;91.50
23731;DHT22;12046;44.702;10.622;2023-02-08T07:38:11;1.60;91.00
23731;DHT22;12046;44.702;10.622;2023-02-08T07:40:37;1.70;90.50
23731;DHT22;12046;44.702;10.622;2023-02-08T07:43:03;1.90;90.10
23731;DHT22;12046;44.702;10.622;2023-02-08T07:45:29;2.10;89.50
23731;DHT22;12046;44.702;10.622;2023-02-08T07:47:54;2.30;88.30
23731;DHT22;12046;44.702;10.622;2023-02-08T07:50:20;2.50;87.10
23731;DHT22;12046;44.702;10.622;2023-02-08T07:52:46;2.60;86.00
23731;DHT22;12046;44.702;10.622;2023-02-08T07:55:13;2.70;85.50
23731;DHT22;12046;44.702;10.622;2023-02-08T07:57:43;3.00;85.00
23731;DHT22;12046;44.702;10.622;2023-02-08T08:00:10;3.20;84.50
23731;DHT22;12046;44.702;10.622;2023-02-08T08:02:36;3.40;83.80
23731;DHT22;12046;44.702;10.622;2023-02-08T08:05:02;3.60;83.20
23731;DHT22;12046;44.702;10.622;2023-02-08T08:07:28;3.90;82.30
23731;DHT22;12046;44.702;10.622;2023-02-08T08:09:54;4.10;81.10
23731;DHT22;12046;44.702;10.622;2023-02-08T08:12:19;4.20;79.90
23731;DHT22;12046;44.702;10.622;2023-02-08T08:14:46;4.40;79.30
23731;DHT22;12046;44.702;10.622;2023-02-08T08:17:12;4.50;78.50
23731;DHT22;12046;44.702;10.622;2023-02-08T08:19:37;4.60;77.70
23731;DHT22;12046;44.702;10.622;2023-02-08T08:22:03;4.70;77.00
23731;DHT22;12046;44.702;10.622;2023-02-08T08:24:29;4.90;76.50
23731;DHT22;12046;44.702;10.622;2023-02-08T08:26:56;5.00;75.70
23731;DHT22;12046;44.702;10.622;2023-02-08T08:29:22;5.00;75.00
23731;DHT22;12046;44.702;10.622;2023-02-08T08:31:48;5.10;74.80
23731;DHT22;12046;44.702;10.622;2023-02-08T08:34:14;5.20;74.80
23731;DHT22;12046;44.702;10.622;2023-02-08T08:36:40;5.40;74.60
23731;DHT22;12046;44.702;10.622;2023-02-08T08:39:06;5.50;74.40
23731;DHT22;12046;44.702;10.622;2023-02-08T08:41:31;5.80;73.90
23731;DHT22;12046;44.702;10.622;2023-02-08T08:43:57;6.00;73.20
23731;DHT22;12046;44.702;10.622;2023-02-08T08:46:23;6.20;72.70
23731;DHT22;12046;44.702;10.622;2023-02-08T08:48:49;6.40;72.40
23731;DHT22;12046;44.702;10.622;2023-02-08T08:51:16;6.60;71.60
23731;DHT22;12046;44.702;10.622;2023-02-08T08:57:28;7.20;70.70
23731;DHT22;12046;44.702;10.622;2023-02-08T09:10:45;8.20;65.40
23731;DHT22;12046;44.702;10.622;2023-02-08T09:13:10;8.50;65.70
23731;DHT22;12046;44.702;10.622;2023-02-08T09:15:44;9.00;65.00
23731;DHT22;12046;44.702;10.622;2023-02-08T09:18:10;9.60;64.10
23731;DHT22;12046;44.702;10.622;2023-02-08T09:20:39;10.60;63.10
23731;DHT22;12046;44.702;10.622;2023-02-08T09:23:05;11.60;61.60
23731;DHT22;12046;44.702;10.622;2023-02-08T09:25:30;13.20;59.60
23731;DHT22;12046;44.702;10.622;2023-02-08T09:27:57;15.20;55.40
23731;DHT22;12046;44.702;10.622;2023-02-08T09:30:23;17.20;52.00
23731;DHT22;12046;44.702;10.622;2023-02-08T09:32:49;18.90;49.00
23731;DHT22;12046;44.702;10.622;2023-02-08T09:35:15;20.30;45.60
23731;DHT22;12046;44.702;10.622;2023-02-08T09:37:41;21.50;42.90
23731;DHT22;12046;44.702;10.622;2023-02-08T09:40:20;22.50;41.50
23731;DHT22;12046;44.702;10.622;2023-02-08T09:43:09;23.70;40.50
23731;DHT22;12046;44.702;10.622;2023-02-08T09:45:49;25.10;38.60
23731;DHT22;12046;44.702;10.622;2023-02-08T09:48:20;26.10;36.60
23731;DHT22;12046;44.702;10.622;2023-02-08T09:51:02;26.70;35.90
23731;DHT22;12046;44.702;10.622;2023-02-08T09:53:39;27.50;35.60
23731;DHT22;12046;44.702;10.622;2023-02-08T09:56:14;28.80;35.00
23731;DHT22;12046;44.702;10.622;2023-02-08T09:58:44;29.80;33.70
23731;DHT22;12046;44.702;10.622;2023-02-08T10:01:21;30.30;33.50
23731;DHT22;12046;44.702;10.622;2023-02-08T10:03:51;31.00;32.70
23731;DHT22;12046;44.702;10.622;2023-02-08T10:06:19;31.80;32.40
23731;DHT22;12046;44.702;10.622;2023-02-08T10:08:47;32.50;31.70
23731;DHT22;12046;44.702;10.622;2023-02-08T10:11:22;33.10;31.50
23731;DHT22;12046;44.702;10.622;2023-02-08T10:22:06;35.70;29.90
23731;DHT22;12046;44.702;10.622;2023-02-08T10:30:27;36.30;29.20
23731;DHT22;12046;44.702;10.622;2023-02-08T10:35:32;36.80;29.40
23731;DHT22;12046;44.702;10.622;2023-02-08T10:38:33;37.10;29.20
23731;DHT22;12046;44.702;10.622;2023-02-08T10:41:03;37.70;29.00
23731;DHT22;12046;44.702;10.622;2023-02-08T10:46:24;38.00;28.60
23731;DHT22;12046;44.702;10.622;2023-02-08T10:51:47;38.30;28.50
23731;DHT22;12046;44.702;10.622;2023-02-08T10:54:13;38.30;28.50
23731;DHT22;12046;44.702;10.622;2023-02-08T10:56:58;38.30;28.50
23731;DHT22;12046;44.702;10.622;2023-02-08T10:59:37;37.90;28.40
23731;DHT22;12046;44.702;10.622;2023-02-08T11:02:30;37.80;28.50
23731;DHT22;12046;44.702;10.622;2023-02-08T11:05:20;37.90;28.50
23731;DHT22;12046;44.702;10.622;2023-02-08T11:08:08;38.30;28.40
23731;DHT22;12046;44.702;10.622;2023-02-08T11:10:34;38.60;28.30
23731;DHT22;12046;44.702;10.622;2023-02-08T11:13:25;38.50;28.20
23731;DHT22;12046;44.702;10.622;2023-02-08T11:15:55;38.40;28.20
23731;DHT22;12046;44.702;10.622;2023-02-08T11:21:08;38.40;28.20
23731;DHT22;12046;44.702;10.622;2023-02-08T11:23:41;38.40;28.20
23731;DHT22;12046;44.702;10.622;2023-02-08T11:26:20;38.60;28.20
23731;DHT22;12046;44.702;10.622;2023-02-08T11:31:24;38.80;28.20
23731;DHT22;12046;44.702;10.622;2023-02-08T11:34:07;38.80;28.20
23731;DHT22;12046;44.702;10.622;2023-02-08T11:36:46;38.80;28.10
23731;DHT22;12046;44.702;10.622;2023-02-08T11:39:41;38.70;28.10
23731;DHT22;12046;44.702;10.622;2023-02-08T11:42:24;38.70;28.10
23731;DHT22;12046;44.702;10.622;2023-02-08T11:44:51;38.70;28.10
23731;DHT22;12046;44.702;10.622;2023-02-08T11:47:27;38.50;28.00
23731;DHT22;12046;44.702;10.622;2023-02-08T11:49:56;38.40;28.00
23731;DHT22;12046;44.702;10.622;2023-02-08T11:55:13;38.20;27.90
23731;DHT22;12046;44.702;10.622;2023-02-08T12:01:19;37.40;28.10
23731;DHT22;12046;44.702;10.622;2023-02-08T12:03:45;37.10;28.10
23731;DHT22;12046;44.702;10.622;2023-02-08T12:09:19;36.60;28.20
23731;DHT22;12046;44.702;10.622;2023-02-08T12:20:02;35.80;28.40
23731;DHT22;12046;44.702;10.622;2023-02-08T12:22:39;35.60;28.50
23731;DHT22;12046;44.702;10.622;2023-02-08T12:27:49;34.30;28.50
23731;DHT22;12046;44.702;10.622;2023-02-08T12:30:33;32.90;28.80
23731;DHT22;12046;44.702;10.622;2023-02-08T12:52:24;28.30;30.30
23731;DHT22;12046;44.702;10.622;2023-02-08T12:55:19;28.20;30.40
23731;DHT22;12046;44.702;10.622;2023-02-08T12:57:49;28.10;30.50
23731;DHT22;12046;44.702;10.622;2023-02-08T13:03:13;27.20;30.70
23731;DHT22;12046;44.702;10.622;2023-02-08T13:05:45;26.60;31.10
23731;DHT22;12046;44.702;10.622;2023-02-08T13:08:25;25.80;31.60
23731;DHT22;12046;44.702;10.622;2023-02-08T13:10:57;25.20;31.90
23731;DHT22;12046;44.702;10.622;2023-02-08T13:13:27;24.40;32.40
23731;DHT22;12046;44.702;10.622;2023-02-08T13:16:15;23.00;33.40
23731;DHT22;12046;44.702;10.622;2023-02-08T13:18:47;21.60;34.50
23731;DHT22;12046;44.702;10.622;2023-02-08T13:21:25;20.20;35.60
23731;DHT22;12046;44.702;10.622;2023-02-08T13:23:53;19.00;36.70
23731;DHT22;12046;44.702;10.622;2023-02-08T13:26:29;18.10;38.00
23731;DHT22;12046;44.702;10.622;2023-02-08T13:28:58;17.30;38.90
23731;DHT22;12046;44.702;10.622;2023-02-08T13:31:32;16.80;39.60
23731;DHT22;12046;44.702;10.622;2023-02-08T13:36:38;16.40;40.60
23731;DHT22;12046;44.702;10.622;2023-02-08T13:41:50;15.90;41.60
23731;DHT22;12046;44.702;10.622;2023-02-08T13:44:25;15.50;41.70
23731;DHT22;12046;44.702;10.622;2023-02-08T13:46:54;14.90;42.00
23731;DHT22;12046;44.702;10.622;2023-02-08T13:57:55;13.00;45.40
23731;DHT22;12046;44.702;10.622;2023-02-08T14:00:24;13.00;45.80
23731;DHT22;12046;44.702;10.622;2023-02-08T14:05:45;12.60;46.10
23731;DHT22;12046;44.702;10.622;2023-02-08T14:13:55;12.00;47.10
23731;DHT22;12046;44.702;10.622;2023-02-08T14:18:54;12.30;46.90
23731;DHT22;12046;44.702;10.622;2023-02-08T14:21:31;12.50;46.50
23731;DHT22;12046;44.702;10.622;2023-02-08T14:24:03;12.50;46.50
23731;DHT22;12046;44.702;10.622;2023-02-08T14:26:30;12.30;47.10
23731;DHT22;12046;44.702;10.622;2023-02-08T14:28:59;12.00;47.70
23731;DHT22;12046;44.702;10.622;2023-02-08T14:31:40;11.70;48.20
23731;DHT22;12046;44.702;10.622;2023-02-08T14:36:46;11.20;49.40
23731;DHT22;12046;44.702;10.622;2023-02-08T14:39:23;11.00;49.60
23731;DHT22;12046;44.702;10.622;2023-02-08T14:47:03;10.40;50.90
23731;DHT22;12046;44.702;10.622;2023-02-08T14:49:36;11.30;51.60
23731;DHT22;12046;44.702;10.622;2023-02-08T14:52:14;13.10;49.50
23731;DHT22;12046;44.702;10.622;2023-02-08T14:55:01;15.30;46.90
23731;DHT22;12046;44.702;10.622;2023-02-08T14:57:31;17.40;44.00
23731;DHT22;12046;44.702;10.622;2023-02-08T15:00:00;18.90;41.60
23731;DHT22;12046;44.702;10.622;2023-02-08T15:02:29;19.80;40.10
23731;DHT22;12046;44.702;10.622;2023-02-08T15:04:59;20.40;39.00
23731;DHT22;12046;44.702;10.622;2023-02-08T15:07:54;20.70;38.40
23731;DHT22;12046;44.702;10.622;2023-02-08T15:10:21;20.90;38.10
23731;DHT22;12046;44.702;10.622;2023-02-08T15:12:53;20.40;38.00
23731;DHT22;12046;44.702;10.622;2023-02-08T15:15:30;19.20;38.50
23731;DHT22;12046;44.702;10.622;2023-02-08T15:17:58;17.70;39.80
23731;DHT22;12046;44.702;10.622;2023-02-08T15:20:31;16.20;41.10
23731;DHT22;12046;44.702;10.622;2023-02-08T15:22:59;14.80;42.50
23731;DHT22;12046;44.702;10.622;2023-02-08T15:25:26;13.70;43.90
23731;DHT22;12046;44.702;10.622;2023-02-08T15:27:57;12.80;45.00
23731;DHT22;12046;44.702;10.622;2023-02-08T15:30:24;12.10;46.10
23731;DHT22;12046;44.702;10.622;2023-02-08T15:32:50;11.70;46.80
23731;DHT22;12046;44.702;10.622;2023-02-08T15:35:18;11.40;47.40
23731;DHT22;12046;44.702;10.622;2023-02-08T15:37:45;11.10;47.60
23731;DHT22;12046;44.702;10.622;2023-02-08T15:40:40;11.00;48.40
23731;DHT22;12046;44.702;10.622;2023-02-08T15:45:33;11.10;48.80
23731;DHT22;12046;44.702;10.622;2023-02-08T15:47:59;11.50;48.50
23731;DHT22;12046;44.702;10.622;2023-02-08T15:50:26;12.00;48.00
23731;DHT22;12046;44.702;10.622;2023-02-08T15:53:01;12.40;47.30
23731;DHT22;12046;44.702;10.622;2023-02-08T15:55:32;12.70;46.70
23731;DHT22;12046;44.702;10.622;2023-02-08T15:58:07;12.70;46.30
23731;DHT22;12046;44.702;10.622;2023-02-08T16:00:37;12.60;46.10
23731;DHT22;12046;44.702;10.622;2023-02-08T16:03:14;12.30;46.30
23731;DHT22;12046;44.702;10.622;2023-02-08T16:05:40;11.80;46.50
23731;DHT22;12046;44.702;10.622;2023-02-08T16:08:07;11.30;47.10
23731;DHT22;12046;44.702;10.622;2023-02-08T16:10:38;10.70;47.70
23731;DHT22;12046;44.702;10.622;2023-02-08T16:13:22;10.10;48.40
23731;DHT22;12046;44.702;10.622;2023-02-08T16:15:56;9.60;49.40
23731;DHT22;12046;44.702;10.622;2023-02-08T16:18:40;9.10;50.10
23731;DHT22;12046;44.702;10.622;2023-02-08T16:24:03;8.40;51.60
23731;DHT22;12046;44.702;10.622;2023-02-08T16:26:36;8.10;52.30
23731;DHT22;12046;44.702;10.622;2023-02-08T16:29:13;7.80;52.90
23731;DHT22;12046;44.702;10.622;2023-02-08T16:31:41;7.60;53.40
23731;DHT22;12046;44.702;10.622;2023-02-08T16:34:18;7.50;54.00
23731;DHT22;12046;44.702;10.622;2023-02-08T16:36:50;7.30;54.50
23731;DHT22;12046;44.702;10.622;2023-02-08T16:44:25;6.90;55.50
23731;DHT22;12046;44.702;10.622;2023-02-08T16:46:51;6.90;55.60
23731;DHT22;12046;44.702;10.622;2023-02-08T16:49:17;6.80;56.00
23731;DHT22;12046;44.702;10.622;2023-02-08T16:51:43;6.70;56.30
23731;DHT22;12046;44.702;10.622;2023-02-08T16:54:20;6.70;56.80
23731;DHT22;12046;44.702;10.622;2023-02-08T16:56:47;6.60;57.30
23731;DHT22;12046;44.702;10.622;2023-02-08T16:59:17;6.50;57.40
23731;DHT22;12046;44.702;10.622;2023-02-08T17:01:44;6.40;57.80
23731;DHT22;12046;44.702;10.622;2023-02-08T17:04:13;6.40;58.50
23731;DHT22;12046;44.702;10.622;2023-02-08T17:06:41;6.30;58.30
23731;DHT22;12046;44.702;10.622;2023-02-08T17:09:11;6.30;58.60
23731;DHT22;12046;44.702;10.622;2023-02-08T17:11:37;6.20;58.60
23731;DHT22;12046;44.702;10.622;2023-02-08T17:14:04;6.10;58.60
23731;DHT22;12046;44.702;10.622;2023-02-08T17:16:31;6.10;58.80
23731;DHT22;12046;44.702;10.622;2023-02-08T17:18:59;6.10;59.10
23731;DHT22;12046;44.702;10.622;2023-02-08T17:21:25;6.10;59.20
23731;DHT22;12046;44.702;10.622;2023-02-08T17:23:54;6.00;59.30
23731;DHT22;12046;44.702;10.622;2023-02-08T17:26:36;5.90;59.30
23731;DHT22;12046;44.702;10.622;2023-02-08T17:29:04;5.90;59.60
23731;DHT22;12046;44.702;10.622;2023-02-08T17:31:30;5.90;59.50
23731;DHT22;12046;44.702;10.622;2023-02-08T17:33:56;5.90;59.70
23731;DHT22;12046;44.702;10.622;2023-02-08T17:36:32;5.80;59.80
23731;DHT22;12046;44.702;10.622;2023-02-08T17:38:59;5.80;59.90
23731;DHT22;12046;44.702;10.622;2023-02-08T17:41:25;5.80;60.00
23731;DHT22;12046;44.702;10.622;2023-02-08T17:43:53;5.70;60.10
23731;DHT22;12046;44.702;10.622;2023-02-08T17:46:24;5.70;60.20
23731;DHT22;12046;44.702;10.622;2023-02-08T17:48:50;5.70;60.40
23731;DHT22;12046;44.702;10.622;2023-02-08T17:51:19;5.70;60.60
23731;DHT22;12046;44.702;10.622;2023-02-08T17:53:46;5.60;60.60
23731;DHT22;12046;44.702;10.622;2023-02-08T17:56:19;5.60;60.70
23731;DHT22;12046;44.702;10.622;2023-02-08T17:58:46;5.50;60.80
23731;DHT22;12046;44.702;10.622;2023-02-08T18:01:17;5.50;61.00
23731;DHT22;12046;44.702;10.622;2023-02-08T18:03:47;5.40;61.00
23731;DHT22;12046;44.702;10.622;2023-02-08T18:06:14;5.40;61.20
23731;DHT22;12046;44.702;10.622;2023-02-08T18:08:40;5.40;61.20
23731;DHT22;12046;44.702;10.622;2023-02-08T18:11:08;5.40;61.30
23731;DHT22;12046;44.702;10.622;2023-02-08T18:13:35;5.40;62.00
23731;DHT22;12046;44.702;10.622;2023-02-08T18:16:22;5.40;61.40
23731;DHT22;12046;44.702;10.622;2023-02-08T18:18:48;5.40;61.50
23731;DHT22;12046;44.702;10.622;2023-02-08T18:21:19;5.40;61.60